sensor_id;sensor_type;location;lat;lon;timestamp;P1;durP1;ratioP1;P2;durP2;ratioP2
64252;SDS011;50592;52.958;-7.470;2023-06-10T00:01:59;16.15;;;8.77;;
64252;SDS011;50592;52.958;-7.470;2023-06-10T00:04:28;20.35;;;8.90;;
64252;SDS011;50592;52.958;-7.470;2023-06-10T00:06:54;17.92;;;9.00;;
64252;SDS011;50592;52.958;-7.470;2023-06-10T00:09:20;16.08;;;8.65;;
64252;SDS011;50592;52.958;-7.470;2023-06-10T00:11:46;17.80;;;9.38;;
64252;SDS011;50592;52.958;-7.470;2023-06-10T00:14:13;16.17;;;8.10;;
64252;SDS011;50592;52.958;-7.470;2023-06-10T00:16:39;17.35;;;8.50;;
64252;SDS011;50592;52.958;-7.470;2023-06-10T00:19:05;21.33;;;9.40;;
64252;SDS011;50592;52.958;-7.470;2023-06-10T00:21:32;17.42;;;8.48;;
64252;SDS011;50592;52.958;-7.470;2023-06-10T00:24:10;19.52;;;8.45;;
64252;SDS011;50592;52.958;-7.470;2023-06-10T00:26:39;19.85;;;9.40;;
64252;SDS011;50592;52.958;-7.470;2023-06-10T00:29:06;18.70;;;8.55;;
64252;SDS011;50592;52.958;-7.470;2023-06-10T00:31:36;24.75;;;9.75;;
64252;SDS011;50592;52.958;-7.470;2023-06-10T00:34:06;13.32;;;8.43;;
64252;SDS011;50592;52.958;-7.470;2023-06-10T00:36:32;21.00;;;8.63;;
64252;SDS011;50592;52.958;-7.470;2023-06-10T00:38:58;14.55;;;7.93;;
64252;SDS011;50592;52.958;-7.470;2023-06-10T00:41:24;15.68;;;8.73;;
64252;SDS011;50592;52.958;-7.470;2023-06-10T00:43:53;15.75;;;9.25;;
64252;SDS011;50592;52.958;-7.470;2023-06-10T00:46:19;18.00;;;8.68;;
64252;SDS011;50592;52.958;-7.470;2023-06-10T00:48:46;21.05;;;9.43;;
64252;SDS011;50592;52.958;-7.470;2023-06-10T00:51:12;16.70;;;8.63;;
64252;SDS011;50592;52.958;-7.470;2023-06-10T00:53:39;16.85;;;8.43;;
64252;SDS011;50592;52.958;-7.470;2023-06-10T00:56:07;19.55;;;9.50;;
64252;SDS011;50592;52.958;-7.470;2023-06-10T00:58:34;15.48;;;8.02;;
64252;SDS011;50592;52.958;-7.470;2023-06-10T01:01:01;24.38;;;9.18;;
64252;SDS011;50592;52.958;-7.470;2023-06-10T01:03:27;16.15;;;8.50;;
64252;SDS011;50592;52.958;-7.470;2023-06-10T01:06:01;16.52;;;8.32;;
64252;SDS011;50592;52.958;-7.470;2023-06-10T01:11:18;16.48;;;8.88;;
64252;SDS011;50592;52.958;-7.470;2023-06-10T01:13:46;15.88;;;9.23;;
64252;SDS011;50592;52.958;-7.470;2023-06-10T01:16:17;17.30;;;8.65;;
64252;SDS011;50592;52.958;-7.470;2023-06-10T01:18:44;23.55;;;10.35;;
64252;SDS011;50592;52.958;-7.470;2023-06-10T01:21:19;15.38;;;8.60;;
64252;SDS011;50592;52.958;-7.470;2023-06-10T01:23:46;24.73;;;9.95;;
64252;SDS011;50592;52.958;-7.470;2023-06-10T01:26:13;13.70;;;9.05;;
64252;SDS011;50592;52.958;-7.470;2023-06-10T01:33:59;21.30;;;9.85;;
64252;SDS011;50592;52.958;-7.470;2023-06-10T01:36:27;16.02;;;9.13;;
64252;SDS011;50592;52.958;-7.470;2023-06-10T01:38:54;14.98;;;9.02;;
64252;SDS011;50592;52.958;-7.470;2023-06-10T01:41:22;20.08;;;9.07;;
64252;SDS011;50592;52.958;-7.470;2023-06-10T01:43:48;13.77;;;8.93;;
64252;SDS011;50592;52.958;-7.470;2023-06-10T01:46:15;21.20;;;9.57;;
64252;SDS011;50592;52.958;-7.470;2023-06-10T01:48:45;16.75;;;9.60;;
64252;SDS011;50592;52.958;-7.470;2023-06-10T01:51:11;17.92;;;8.68;;
64252;SDS011;50592;52.958;-7.470;2023-06-10T01:53:37;20.38;;;8.75;;
64252;SDS011;50592;52.958;-7.470;2023-06-10T01:56:03;17.42;;;9.60;;
64252;SDS011;50592;52.958;-7.470;2023-06-10T01:58:29;18.08;;;9.43;;
64252;SDS011;50592;52.958;-7.470;2023-06-10T02:00:55;20.13;;;9.20;;
64252;SDS011;50592;52.958;-7.470;2023-06-10T02:03:20;13.77;;;9.23;;
64252;SDS011;50592;52.958;-7.470;2023-06-10T02:05:46;18.38;;;9.57;;
64252;SDS011;50592;52.958;-7.470;2023-06-10T02:08:14;15.73;;;9.38;;
64252;SDS011;50592;52.958;-7.470;2023-06-10T02:10:40;17.55;;;8.85;;
64252;SDS011;50592;52.958;-7.470;2023-06-10T02:13:06;20.38;;;10.05;;
64252;SDS011;50592;52.958;-7.470;2023-06-10T02:15:33;18.83;;;9.98;;
64252;SDS011;50592;52.958;-7.470;2023-06-10T02:17:59;19.58;;;10.75;;
64252;SDS011;50592;52.958;-7.470;2023-06-10T02:20:26;19.45;;;9.27;;
64252;SDS011;50592;52.958;-7.470;2023-06-10T02:22:52;19.23;;;9.32;;
64252;SDS011;50592;52.958;-7.470;2023-06-10T02:25:18;17.58;;;10.15;;
64252;SDS011;50592;52.958;-7.470;2023-06-10T02:27:44;17.05;;;8.52;;
64252;SDS011;50592;52.958;-7.470;2023-06-10T02:30:10;14.65;;;8.73;;
64252;SDS011;50592;52.958;-7.470;2023-06-10T02:32:36;19.15;;;9.80;;
64252;SDS011;50592;52.958;-7.470;2023-06-10T02:35:02;16.90;;;9.45;;
64252;SDS011;50592;52.958;-7.470;2023-06-10T02:37:29;18.20;;;9.15;;
64252;SDS011;50592;52.958;-7.470;2023-06-10T02:39:56;17.50;;;9.57;;
64252;SDS011;50592;52.958;-7.470;2023-06-10T02:42:23;15.52;;;10.45;;
64252;SDS011;50592;52.958;-7.470;2023-06-10T02:44:50;19.65;;;9.05;;
64252;SDS011;50592;52.958;-7.470;2023-06-10T02:47:26;20.48;;;9.57;;
64252;SDS011;50592;52.958;-7.470;2023-06-10T02:49:52;19.98;;;9.25;;
64252;SDS011;50592;52.958;-7.470;2023-06-10T02:52:18;14.00;;;9.10;;
64252;SDS011;50592;52.958;-7.470;2023-06-10T02:54:46;31.15;;;9.70;;
64252;SDS011;50592;52.958;-7.470;2023-06-10T02:57:12;17.38;;;9.30;;
64252;SDS011;50592;52.958;-7.470;2023-06-10T02:59:39;18.48;;;8.82;;
64252;SDS011;50592;52.958;-7.470;2023-06-10T03:02:07;21.33;;;10.23;;
64252;SDS011;50592;52.958;-7.470;2023-06-10T03:04:39;16.50;;;9.45;;
64252;SDS011;50592;52.958;-7.470;2023-06-10T03:07:12;18.45;;;8.90;;
64252;SDS011;50592;52.958;-7.470;2023-06-10T03:09:38;13.65;;;9.02;;
64252;SDS011;50592;52.958;-7.470;2023-06-10T03:12:06;21.73;;;9.75;;
64252;SDS011;50592;52.958;-7.470;2023-06-10T03:14:38;20.42;;;9.43;;
64252;SDS011;50592;52.958;-7.470;2023-06-10T03:17:04;20.98;;;9.43;;
64252;SDS011;50592;52.958;-7.470;2023-06-10T03:19:32;14.07;;;8.30;;
64252;SDS011;50592;52.958;-7.470;2023-06-10T03:22:09;17.67;;;9.20;;
64252;SDS011;50592;52.958;-7.470;2023-06-10T03:24:39;15.98;;;9.15;;
64252;SDS011;50592;52.958;-7.470;2023-06-10T03:27:08;16.63;;;8.75;;
64252;SDS011;50592;52.958;-7.470;2023-06-10T03:29:36;18.58;;;8.50;;
64252;SDS011;50592;52.958;-7.470;2023-06-10T03:32:04;15.23;;;9.20;;
64252;SDS011;50592;52.958;-7.470;2023-06-10T03:34:31;18.60;;;9.75;;
64252;SDS011;50592;52.958;-7.470;2023-06-10T03:36:58;21.33;;;9.43;;
64252;SDS011;50592;52.958;-7.470;2023-06-10T03:39:25;18.75;;;10.13;;
64252;SDS011;50592;52.958;-7.470;2023-06-10T03:41:51;16.20;;;9.43;;
64252;SDS011;50592;52.958;-7.470;2023-06-10T03:44:18;17.95;;;9.70;;
64252;SDS011;50592;52.958;-7.470;2023-06-10T03:46:44;14.55;;;10.02;;
64252;SDS011;50592;52.958;-7.470;2023-06-10T03:49:11;15.63;;;8.73;;
64252;SDS011;50592;52.958;-7.470;2023-06-10T03:51:37;16.27;;;9.27;;
64252;SDS011;50592;52.958;-7.470;2023-06-10T03:54:04;21.25;;;10.13;;
64252;SDS011;50592;52.958;-7.470;2023-06-10T03:56:30;13.90;;;9.73;;
64252;SDS011;50592;52.958;-7.470;2023-06-10T03:58:56;18.23;;;9.40;;
64252;SDS011;50592;52.958;-7.470;2023-06-10T04:01:22;16.88;;;9.70;;
64252;SDS011;50592;52.958;-7.470;2023-06-10T04:03:49;20.98;;;10.15;;
64252;SDS011;50592;52.958;-7.470;2023-06-10T04:06:16;21.35;;;10.68;;
64252;SDS011;50592;52.958;-7.470;2023-06-10T04:08:42;17.55;;;9.57;;
64252;SDS011;50592;52.958;-7.470;2023-06-10T04:11:09;16.83;;;9.75;;
64252;SDS011;50592;52.958;-7.470;2023-06-10T04:13:34;15.77;;;9.63;;
64252;SDS011;50592;52.958;-7.470;2023-06-10T04:16:02;23.38;;;10.23;;
64252;SDS011;50592;52.958;-7.470;2023-06-10T04:18:28;20.88;;;9.85;;
64252;SDS011;50592;52.958;-7.470;2023-06-10T04:20:57;18.20;;;10.32;;
64252;SDS011;50592;52.958;-7.470;2023-06-10T04:23:22;17.38;;;11.40;;
64252;SDS011;50592;52.958;-7.470;2023-06-10T04:25:48;19.63;;;10.85;;
64252;SDS011;50592;52.958;-7.470;2023-06-10T04:28:14;12.85;;;9.88;;
64252;SDS011;50592;52.958;-7.470;2023-06-10T04:30:41;18.38;;;10.48;;
64252;SDS011;50592;52.958;-7.470;2023-06-10T04:33:07;19.33;;;10.48;;
64252;SDS011;50592;52.958;-7.470;2023-06-10T04:35:35;21.35;;;10.82;;
64252;SDS011;50592;52.958;-7.470;2023-06-10T04:38:03;19.45;;;10.85;;
64252;SDS011;50592;52.958;-7.470;2023-06-10T04:40:30;16.15;;;10.05;;
64252;SDS011;50592;52.958;-7.470;2023-06-10T04:42:55;18.52;;;10.32;;
64252;SDS011;50592;52.958;-7.470;2023-06-10T04:45:21;20.65;;;10.15;;
64252;SDS011;50592;52.958;-7.470;2023-06-10T04:47:47;18.90;;;11.10;;
64252;SDS011;50592;52.958;-7.470;2023-06-10T04:50:13;20.70;;;10.68;;
64252;SDS011;50592;52.958;-7.470;2023-06-10T04:52:39;21.90;;;11.32;;
64252;SDS011;50592;52.958;-7.470;2023-06-10T04:55:06;20.42;;;11.15;;
64252;SDS011;50592;52.958;-7.470;2023-06-10T04:57:33;26.17;;;11.73;;
64252;SDS011;50592;52.958;-7.470;2023-06-10T04:59:59;16.73;;;10.32;;
64252;SDS011;50592;52.958;-7.470;2023-06-10T05:02:25;19.95;;;11.75;;
64252;SDS011;50592;52.958;-7.470;2023-06-10T05:04:50;24.02;;;11.18;;
64252;SDS011;50592;52.958;-7.470;2023-06-10T05:07:16;27.65;;;11.35;;
64252;SDS011;50592;52.958;-7.470;2023-06-10T05:09:42;23.08;;;12.07;;
64252;SDS011;50592;52.958;-7.470;2023-06-10T05:12:08;21.05;;;11.77;;
64252;SDS011;50592;52.958;-7.470;2023-06-10T05:14:34;21.83;;;11.48;;
64252;SDS011;50592;52.958;-7.470;2023-06-10T05:17:00;24.20;;;12.05;;
64252;SDS011;50592;52.958;-7.470;2023-06-10T05:19:25;15.52;;;12.02;;
64252;SDS011;50592;52.958;-7.470;2023-06-10T05:21:52;21.30;;;11.90;;
64252;SDS011;50592;52.958;-7.470;2023-06-10T05:24:18;28.25;;;12.75;;
64252;SDS011;50592;52.958;-7.470;2023-06-10T05:26:45;21.65;;;12.10;;
64252;SDS011;50592;52.958;-7.470;2023-06-10T05:29:10;18.75;;;11.82;;
64252;SDS011;50592;52.958;-7.470;2023-06-10T05:31:36;19.02;;;11.93;;
64252;SDS011;50592;52.958;-7.470;2023-06-10T05:34:02;22.27;;;13.10;;
64252;SDS011;50592;52.958;-7.470;2023-06-10T05:36:28;19.77;;;12.50;;
64252;SDS011;50592;52.958;-7.470;2023-06-10T05:38:54;18.00;;;12.90;;
64252;SDS011;50592;52.958;-7.470;2023-06-10T05:41:20;26.58;;;12.70;;
64252;SDS011;50592;52.958;-7.470;2023-06-10T05:43:47;23.60;;;13.10;;
64252;SDS011;50592;52.958;-7.470;2023-06-10T05:46:13;15.88;;;12.02;;
64252;SDS011;50592;52.958;-7.470;2023-06-10T05:48:39;19.13;;;12.18;;
64252;SDS011;50592;52.958;-7.470;2023-06-10T05:51:04;19.05;;;13.10;;
64252;SDS011;50592;52.958;-7.470;2023-06-10T05:53:31;21.13;;;12.98;;
64252;SDS011;50592;52.958;-7.470;2023-06-10T05:55:57;20.65;;;12.80;;
64252;SDS011;50592;52.958;-7.470;2023-06-10T05:58:24;21.30;;;12.52;;
64252;SDS011;50592;52.958;-7.470;2023-06-10T06:00:50;22.10;;;11.98;;
64252;SDS011;50592;52.958;-7.470;2023-06-10T06:03:16;31.05;;;11.65;;
64252;SDS011;50592;52.958;-7.470;2023-06-10T06:05:42;20.38;;;12.57;;
64252;SDS011;50592;52.958;-7.470;2023-06-10T06:08:09;20.67;;;12.23;;
64252;SDS011;50592;52.958;-7.470;2023-06-10T06:10:35;21.35;;;12.93;;
64252;SDS011;50592;52.958;-7.470;2023-06-10T06:13:01;23.67;;;11.75;;
64252;SDS011;50592;52.958;-7.470;2023-06-10T06:15:27;26.67;;;13.48;;
64252;SDS011;50592;52.958;-7.470;2023-06-10T06:17:53;28.58;;;13.23;;
64252;SDS011;50592;52.958;-7.470;2023-06-10T06:20:19;19.05;;;12.05;;
64252;SDS011;50592;52.958;-7.470;2023-06-10T06:22:45;20.95;;;12.45;;
64252;SDS011;50592;52.958;-7.470;2023-06-10T06:25:11;20.92;;;11.85;;
64252;SDS011;50592;52.958;-7.470;2023-06-10T06:27:37;21.95;;;12.63;;
64252;SDS011;50592;52.958;-7.470;2023-06-10T06:30:03;25.52;;;12.88;;
64252;SDS011;50592;52.958;-7.470;2023-06-10T06:32:29;20.77;;;12.25;;
64252;SDS011;50592;52.958;-7.470;2023-06-10T06:34:55;23.92;;;12.30;;
64252;SDS011;50592;52.958;-7.470;2023-06-10T06:37:21;24.65;;;12.43;;
64252;SDS011;50592;52.958;-7.470;2023-06-10T06:39:51;19.52;;;12.32;;
64252;SDS011;50592;52.958;-7.470;2023-06-10T06:42:18;21.98;;;13.07;;
64252;SDS011;50592;52.958;-7.470;2023-06-10T06:45:05;21.83;;;13.10;;
64252;SDS011;50592;52.958;-7.470;2023-06-10T06:47:32;19.45;;;12.43;;
64252;SDS011;50592;52.958;-7.470;2023-06-10T06:49:57;23.48;;;13.60;;
64252;SDS011;50592;52.958;-7.470;2023-06-10T06:52:23;24.27;;;13.10;;
64252;SDS011;50592;52.958;-7.470;2023-06-10T06:54:48;19.48;;;12.07;;
64252;SDS011;50592;52.958;-7.470;2023-06-10T06:57:15;25.55;;;13.48;;
64252;SDS011;50592;52.958;-7.470;2023-06-10T06:59:40;24.08;;;13.70;;
64252;SDS011;50592;52.958;-7.470;2023-06-10T07:02:06;16.63;;;12.63;;
64252;SDS011;50592;52.958;-7.470;2023-06-10T07:04:32;20.92;;;12.68;;
64252;SDS011;50592;52.958;-7.470;2023-06-10T07:06:58;18.23;;;12.73;;
64252;SDS011;50592;52.958;-7.470;2023-06-10T07:09:23;22.23;;;13.40;;
64252;SDS011;50592;52.958;-7.470;2023-06-10T07:11:49;22.05;;;13.32;;
64252;SDS011;50592;52.958;-7.470;2023-06-10T07:14:15;24.25;;;14.32;;
64252;SDS011;50592;52.958;-7.470;2023-06-10T07:16:41;23.65;;;13.23;;
64252;SDS011;50592;52.958;-7.470;2023-06-10T07:19:06;19.70;;;13.05;;
64252;SDS011;50592;52.958;-7.470;2023-06-10T07:21:32;22.08;;;13.70;;
64252;SDS011;50592;52.958;-7.470;2023-06-10T07:23:59;24.13;;;13.82;;
64252;SDS011;50592;52.958;-7.470;2023-06-10T07:26:25;24.65;;;12.75;;
64252;SDS011;50592;52.958;-7.470;2023-06-10T07:28:51;22.27;;;14.65;;
64252;SDS011;50592;52.958;-7.470;2023-06-10T07:31:17;20.65;;;13.25;;
64252;SDS011;50592;52.958;-7.470;2023-06-10T07:33:43;18.52;;;13.23;;
64252;SDS011;50592;52.958;-7.470;2023-06-10T07:36:09;22.65;;;12.77;;
64252;SDS011;50592;52.958;-7.470;2023-06-10T07:38:35;23.05;;;13.48;;
64252;SDS011;50592;52.958;-7.470;2023-06-10T07:41:01;26.02;;;13.63;;
64252;SDS011;50592;52.958;-7.470;2023-06-10T07:43:27;21.60;;;13.75;;
64252;SDS011;50592;52.958;-7.470;2023-06-10T07:45:53;22.80;;;14.55;;
64252;SDS011;50592;52.958;-7.470;2023-06-10T07:48:19;21.55;;;13.43;;
64252;SDS011;50592;52.958;-7.470;2023-06-10T07:50:45;22.42;;;13.55;;
64252;SDS011;50592;52.958;-7.470;2023-06-10T07:53:10;20.73;;;13.48;;
64252;SDS011;50592;52.958;-7.470;2023-06-10T07:55:36;20.98;;;14.60;;
64252;SDS011;50592;52.958;-7.470;2023-06-10T07:58:02;25.08;;;14.50;;
64252;SDS011;50592;52.958;-7.470;2023-06-10T08:00:28;22.23;;;14.07;;
64252;SDS011;50592;52.958;-7.470;2023-06-10T08:02:54;22.63;;;14.05;;
64252;SDS011;50592;52.958;-7.470;2023-06-10T08:05:21;22.75;;;14.30;;
64252;SDS011;50592;52.958;-7.470;2023-06-10T08:07:46;29.90;;;14.55;;
64252;SDS011;50592;52.958;-7.470;2023-06-10T08:10:13;23.48;;;13.40;;
64252;SDS011;50592;52.958;-7.470;2023-06-10T08:12:38;30.45;;;13.68;;
64252;SDS011;50592;52.958;-7.470;2023-06-10T08:15:04;21.33;;;13.68;;
64252;SDS011;50592;52.958;-7.470;2023-06-10T08:17:30;20.05;;;12.35;;
64252;SDS011;50592;52.958;-7.470;2023-06-10T08:19:56;21.70;;;12.43;;
64252;SDS011;50592;52.958;-7.470;2023-06-10T08:22:23;29.75;;;13.23;;
64252;SDS011;50592;52.958;-7.470;2023-06-10T08:24:48;21.92;;;13.15;;
64252;SDS011;50592;52.958;-7.470;2023-06-10T08:27:14;16.88;;;12.68;;
64252;SDS011;50592;52.958;-7.470;2023-06-10T08:29:43;23.35;;;12.48;;
64252;SDS011;50592;52.958;-7.470;2023-06-10T08:32:09;21.48;;;12.63;;
64252;SDS011;50592;52.958;-7.470;2023-06-10T08:34:35;21.77;;;12.63;;
64252;SDS011;50592;52.958;-7.470;2023-06-10T08:37:04;25.60;;;12.25;;
64252;SDS011;50592;52.958;-7.470;2023-06-10T08:39:30;20.35;;;11.88;;
64252;SDS011;50592;52.958;-7.470;2023-06-10T08:44:31;17.35;;;10.02;;
64252;SDS011;50592;52.958;-7.470;2023-06-10T08:46:59;22.55;;;10.93;;
64252;SDS011;50592;52.958;-7.470;2023-06-10T08:49:30;18.67;;;9.98;;
64252;SDS011;50592;52.958;-7.470;2023-06-10T08:51:59;18.13;;;9.93;;
64252;SDS011;50592;52.958;-7.470;2023-06-10T08:54:28;19.33;;;11.15;;
64252;SDS011;50592;52.958;-7.470;2023-06-10T08:56:57;16.00;;;9.70;;
64252;SDS011;50592;52.958;-7.470;2023-06-10T08:59:25;17.75;;;9.98;;
64252;SDS011;50592;52.958;-7.470;2023-06-10T09:01:52;19.27;;;9.90;;
64252;SDS011;50592;52.958;-7.470;2023-06-10T09:04:19;15.70;;;10.32;;
64252;SDS011;50592;52.958;-7.470;2023-06-10T09:06:45;15.57;;;10.32;;
64252;SDS011;50592;52.958;-7.470;2023-06-10T09:09:14;17.58;;;10.55;;
64252;SDS011;50592;52.958;-7.470;2023-06-10T09:11:42;16.00;;;9.70;;
64252;SDS011;50592;52.958;-7.470;2023-06-10T09:14:08;18.80;;;9.93;;
64252;SDS011;50592;52.958;-7.470;2023-06-10T09:16:34;26.25;;;9.85;;
64252;SDS011;50592;52.958;-7.470;2023-06-10T09:19:00;16.00;;;9.30;;
64252;SDS011;50592;52.958;-7.470;2023-06-10T09:21:33;14.43;;;9.57;;
64252;SDS011;50592;52.958;-7.470;2023-06-10T09:23:59;16.63;;;9.95;;
64252;SDS011;50592;52.958;-7.470;2023-06-10T09:26:29;17.08;;;9.57;;
64252;SDS011;50592;52.958;-7.470;2023-06-10T09:29:03;20.50;;;9.85;;
64252;SDS011;50592;52.958;-7.470;2023-06-10T09:31:31;17.15;;;9.93;;
64252;SDS011;50592;52.958;-7.470;2023-06-10T09:34:07;15.98;;;8.23;;
64252;SDS011;50592;52.958;-7.470;2023-06-10T09:36:39;16.48;;;9.77;;
64252;SDS011;50592;52.958;-7.470;2023-06-10T09:39:13;19.13;;;10.43;;
64252;SDS011;50592;52.958;-7.470;2023-06-10T09:46:40;18.48;;;10.73;;
64252;SDS011;50592;52.958;-7.470;2023-06-10T09:49:07;21.50;;;11.13;;
64252;SDS011;50592;52.958;-7.470;2023-06-10T09:51:32;26.98;;;12.32;;
64252;SDS011;50592;52.958;-7.470;2023-06-10T09:53:59;18.75;;;11.90;;
64252;SDS011;50592;52.958;-7.470;2023-06-10T09:56:34;19.92;;;11.93;;
64252;SDS011;50592;52.958;-7.470;2023-06-10T09:59:00;21.08;;;11.85;;
64252;SDS011;50592;52.958;-7.470;2023-06-10T10:01:26;15.57;;;11.57;;
64252;SDS011;50592;52.958;-7.470;2023-06-10T10:03:52;18.83;;;10.98;;
64252;SDS011;50592;52.958;-7.470;2023-06-10T10:06:19;21.63;;;12.02;;
64252;SDS011;50592;52.958;-7.470;2023-06-10T10:08:46;19.65;;;12.18;;
64252;SDS011;50592;52.958;-7.470;2023-06-10T10:11:14;18.83;;;11.70;;
64252;SDS011;50592;52.958;-7.470;2023-06-10T10:13:43;14.65;;;11.40;;
64252;SDS011;50592;52.958;-7.470;2023-06-10T10:16:17;17.67;;;11.20;;
64252;SDS011;50592;52.958;-7.470;2023-06-10T10:18:49;14.98;;;11.07;;
64252;SDS011;50592;52.958;-7.470;2023-06-10T10:21:21;16.30;;;11.32;;
64252;SDS011;50592;52.958;-7.470;2023-06-10T10:23:53;20.20;;;10.52;;
64252;SDS011;50592;52.958;-7.470;2023-06-10T10:26:22;18.63;;;10.27;;
64252;SDS011;50592;52.958;-7.470;2023-06-10T10:28:53;18.60;;;11.90;;
64252;SDS011;50592;52.958;-7.470;2023-06-10T10:31:23;18.02;;;12.00;;
64252;SDS011;50592;52.958;-7.470;2023-06-10T10:33:54;20.88;;;10.73;;
64252;SDS011;50592;52.958;-7.470;2023-06-10T10:36:24;19.83;;;11.60;;
64252;SDS011;50592;52.958;-7.470;2023-06-10T10:38:50;16.75;;;10.85;;
64252;SDS011;50592;52.958;-7.470;2023-06-10T10:41:17;17.77;;;11.48;;
64252;SDS011;50592;52.958;-7.470;2023-06-10T10:43:44;17.98;;;11.15;;
64252;SDS011;50592;52.958;-7.470;2023-06-10T10:46:13;24.67;;;13.07;;
64252;SDS011;50592;52.958;-7.470;2023-06-10T10:48:41;18.33;;;11.52;;
64252;SDS011;50592;52.958;-7.470;2023-06-10T10:51:08;22.52;;;13.00;;
64252;SDS011;50592;52.958;-7.470;2023-06-10T10:53:36;19.83;;;11.65;;
64252;SDS011;50592;52.958;-7.470;2023-06-10T10:56:04;19.42;;;11.15;;
64252;SDS011;50592;52.958;-7.470;2023-06-10T10:58:32;19.25;;;11.57;;
64252;SDS011;50592;52.958;-7.470;2023-06-10T11:00:58;19.17;;;11.27;;
64252;SDS011;50592;52.958;-7.470;2023-06-10T11:03:27;18.88;;;11.95;;
64252;SDS011;50592;52.958;-7.470;2023-06-10T11:05:58;16.55;;;11.85;;
64252;SDS011;50592;52.958;-7.470;2023-06-10T11:10:53;22.98;;;12.32;;
64252;SDS011;50592;52.958;-7.470;2023-06-10T11:13:19;16.58;;;12.25;;
64252;SDS011;50592;52.958;-7.470;2023-06-10T11:15:47;17.70;;;11.40;;
64252;SDS011;50592;52.958;-7.470;2023-06-10T11:18:19;15.82;;;10.82;;
64252;SDS011;50592;52.958;-7.470;2023-06-10T11:25:51;21.42;;;12.18;;
64252;SDS011;50592;52.958;-7.470;2023-06-10T11:28:34;21.83;;;11.48;;
64252;SDS011;50592;52.958;-7.470;2023-06-10T11:31:00;17.65;;;10.85;;
64252;SDS011;50592;52.958;-7.470;2023-06-10T11:33:25;20.88;;;11.65;;
64252;SDS011;50592;52.958;-7.470;2023-06-10T11:35:51;23.42;;;11.55;;
64252;SDS011;50592;52.958;-7.470;2023-06-10T11:38:17;17.33;;;12.27;;
64252;SDS011;50592;52.958;-7.470;2023-06-10T11:40:50;19.60;;;11.63;;
64252;SDS011;50592;52.958;-7.470;2023-06-10T11:43:17;16.77;;;11.55;;
64252;SDS011;50592;52.958;-7.470;2023-06-10T11:45:43;20.30;;;12.43;;
64252;SDS011;50592;52.958;-7.470;2023-06-10T11:48:10;18.45;;;11.63;;
64252;SDS011;50592;52.958;-7.470;2023-06-10T11:50:36;17.10;;;11.88;;
64252;SDS011;50592;52.958;-7.470;2023-06-10T11:53:02;15.05;;;11.00;;
64252;SDS011;50592;52.958;-7.470;2023-06-10T11:55:45;22.15;;;12.10;;
64252;SDS011;50592;52.958;-7.470;2023-06-10T11:58:13;18.88;;;11.90;;
64252;SDS011;50592;52.958;-7.470;2023-06-10T12:00:48;17.58;;;11.48;;
64252;SDS011;50592;52.958;-7.470;2023-06-10T12:03:24;17.65;;;12.10;;
64252;SDS011;50592;52.958;-7.470;2023-06-10T12:05:57;20.92;;;11.63;;
64252;SDS011;50592;52.958;-7.470;2023-06-10T12:08:23;18.42;;;11.80;;
64252;SDS011;50592;52.958;-7.470;2023-06-10T12:10:50;19.70;;;12.02;;
64252;SDS011;50592;52.958;-7.470;2023-06-10T12:13:16;18.90;;;12.10;;
64252;SDS011;50592;52.958;-7.470;2023-06-10T12:15:45;20.55;;;13.27;;
64252;SDS011;50592;52.958;-7.470;2023-06-10T12:18:18;19.10;;;12.63;;
64252;SDS011;50592;52.958;-7.470;2023-06-10T12:20:45;17.77;;;12.05;;
64252;SDS011;50592;52.958;-7.470;2023-06-10T12:23:11;18.83;;;12.43;;
64252;SDS011;50592;52.958;-7.470;2023-06-10T12:25:37;22.23;;;13.80;;
64252;SDS011;50592;52.958;-7.470;2023-06-10T12:28:04;19.55;;;11.73;;
64252;SDS011;50592;52.958;-7.470;2023-06-10T12:30:30;22.45;;;12.25;;
64252;SDS011;50592;52.958;-7.470;2023-06-10T13:05:38;22.67;;;13.25;;
64252;SDS011;50592;52.958;-7.470;2023-06-10T13:08:07;16.52;;;13.30;;
64252;SDS011;50592;52.958;-7.470;2023-06-10T13:10:35;20.13;;;13.88;;
64252;SDS011;50592;52.958;-7.470;2023-06-10T13:13:01;19.60;;;12.50;;
64252;SDS011;50592;52.958;-7.470;2023-06-10T13:15:30;18.73;;;13.57;;
64252;SDS011;50592;52.958;-7.470;2023-06-10T13:17:57;20.63;;;13.52;;
64252;SDS011;50592;52.958;-7.470;2023-06-10T13:20:23;17.98;;;12.90;;
64252;SDS011;50592;52.958;-7.470;2023-06-10T13:22:50;19.65;;;13.40;;
64252;SDS011;50592;52.958;-7.470;2023-06-10T13:25:15;19.58;;;13.18;;
64252;SDS011;50592;52.958;-7.470;2023-06-10T13:27:41;21.55;;;14.63;;
64252;SDS011;50592;52.958;-7.470;2023-06-10T13:30:08;26.33;;;13.57;;
64252;SDS011;50592;52.958;-7.470;2023-06-10T13:32:35;22.95;;;13.02;;
64252;SDS011;50592;52.958;-7.470;2023-06-10T13:35:01;18.92;;;12.85;;
64252;SDS011;50592;52.958;-7.470;2023-06-10T13:37:28;21.42;;;12.60;;
64252;SDS011;50592;52.958;-7.470;2023-06-10T13:39:54;23.10;;;13.23;;
64252;SDS011;50592;52.958;-7.470;2023-06-10T13:42:20;21.25;;;14.52;;
64252;SDS011;50592;52.958;-7.470;2023-06-10T13:44:46;25.45;;;12.82;;
64252;SDS011;50592;52.958;-7.470;2023-06-10T13:47:13;16.50;;;13.57;;
64252;SDS011;50592;52.958;-7.470;2023-06-10T13:49:39;21.00;;;13.02;;
64252;SDS011;50592;52.958;-7.470;2023-06-10T13:52:06;23.52;;;13.13;;
64252;SDS011;50592;52.958;-7.470;2023-06-10T13:54:32;23.58;;;13.10;;
64252;SDS011;50592;52.958;-7.470;2023-06-10T13:56:58;20.95;;;12.68;;
64252;SDS011;50592;52.958;-7.470;2023-06-10T13:59:25;18.17;;;12.35;;
64252;SDS011;50592;52.958;-7.470;2023-06-10T14:01:51;27.02;;;12.18;;
64252;SDS011;50592;52.958;-7.470;2023-06-10T14:04:18;16.45;;;12.18;;
64252;SDS011;50592;52.958;-7.470;2023-06-10T14:06:45;20.42;;;13.75;;
64252;SDS011;50592;52.958;-7.470;2023-06-10T14:09:13;18.70;;;12.85;;
64252;SDS011;50592;52.958;-7.470;2023-06-10T14:11:39;16.75;;;12.30;;
64252;SDS011;50592;52.958;-7.470;2023-06-10T14:14:05;19.40;;;12.88;;
64252;SDS011;50592;52.958;-7.470;2023-06-10T14:16:31;18.10;;;12.63;;
64252;SDS011;50592;52.958;-7.470;2023-06-10T18:08:18;16.75;;;11.95;;
64252;SDS011;50592;52.958;-7.470;2023-06-10T18:10:43;18.40;;;11.98;;
64252;SDS011;50592;52.958;-7.470;2023-06-10T18:13:09;18.73;;;13.45;;
64252;SDS011;50592;52.958;-7.470;2023-06-10T18:15:35;16.65;;;11.98;;
64252;SDS011;50592;52.958;-7.470;2023-06-10T18:18:01;18.05;;;12.75;;
64252;SDS011;50592;52.958;-7.470;2023-06-10T18:20:26;16.17;;;12.10;;
64252;SDS011;50592;52.958;-7.470;2023-06-10T18:22:52;14.35;;;11.95;;
64252;SDS011;50592;52.958;-7.470;2023-06-10T18:25:18;17.55;;;12.40;;
64252;SDS011;50592;52.958;-7.470;2023-06-10T18:27:43;17.15;;;10.73;;
64252;SDS011;50592;52.958;-7.470;2023-06-10T18:30:09;12.88;;;10.45;;
64252;SDS011;50592;52.958;-7.470;2023-06-10T18:32:35;18.55;;;11.10;;
64252;SDS011;50592;52.958;-7.470;2023-06-10T18:35:01;12.73;;;9.95;;
64252;SDS011;50592;52.958;-7.470;2023-06-10T18:37:27;16.92;;;10.60;;
64252;SDS011;50592;52.958;-7.470;2023-06-10T18:39:52;15.43;;;10.80;;
64252;SDS011;50592;52.958;-7.470;2023-06-10T18:42:18;16.33;;;11.07;;
64252;SDS011;50592;52.958;-7.470;2023-06-10T18:44:44;18.33;;;12.73;;
64252;SDS011;50592;52.958;-7.470;2023-06-10T18:47:10;20.25;;;11.63;;
64252;SDS011;50592;52.958;-7.470;2023-06-10T18:49:36;18.52;;;12.63;;
64252;SDS011;50592;52.958;-7.470;2023-06-10T18:52:03;16.17;;;12.90;;
64252;SDS011;50592;52.958;-7.470;2023-06-10T18:54:30;18.80;;;12.50;;
64252;SDS011;50592;52.958;-7.470;2023-06-10T18:56:56;17.70;;;12.57;;
64252;SDS011;50592;52.958;-7.470;2023-06-10T18:59:23;15.93;;;12.00;;